Nucla, Colorado
Current Conditions -  °F | °C
As of 3:35 AM on Friday 31 Oct 2014 (Local Time) from KAIB Reporting Station
Clear Clear  
Wind Chill: 35°   Ceiling: Unl
Heat Index: 39°   Visibility: 10mi
Dew Point: 21°   Wind: 6mph
Humidity: 49%   Direction: 120°ESE
Pressure: 30.29"   Gusts: NA
Location:  38.27°N, 108.55°W
Report Text: KAIB 310935Z AUTO 12005KT 10SM CLR 04/M06 A3029 RMK AO2
Loading
Personal Weather Stations






























Interactive Weather Map New forecast layout! Learn more

10-Day Weather Forecast

Advertisements
Track Severe Weather on mobile